Time;durP1;ratioP1;P1;durP2;ratioP2;P2;SDS_P1;SDS_P2;PMS_P1;PMS_P2;Temp;Humidity;BMP_temperature;BMP_pressure;BME280_temperature;BME280_humidity;BME280_pressure;Samples;Min_cycle;Max_cycle;Signal;HPM_P1;HPM_P2
2023/06/08 00:14:57;;;;;;;14.17;6.43;;;;;;;15.24;100.00;101535.53;10502239;28;20267;-77
2023/06/08 00:19:59;;;;;;;14.15;7.97;;;;;;;15.14;100.00;101533.38;10487185;28;20267;-77
2023/06/08 00:25:00;;;;;;;19.60;9.45;;;;;;;15.04;100.00;101535.66;10438207;28;20438;-78
2023/06/08 00:30:00;;;;;;;8.70;5.85;;;;;;;14.95;100.00;101527.38;10467972;28;20068;-78
2023/06/08 00:35:01;;;;;;;10.07;6.78;;;;;;;14.94;100.00;101533.47;10471610;28;20445;-78
2023/06/08 00:40:04;;;;;;;36.10;9.55;;;;;;;14.81;100.00;101539.97;10432036;28;20076;-78
2023/06/08 00:45:05;;;;;;;18.33;8.73;;;;;;;14.68;100.00;101531.53;10457762;28;20110;-78
2023/06/08 00:50:08;;;;;;;24.98;10.77;;;;;;;14.75;100.00;101530.09;10462472;28;20032;-77
2023/06/08 00:55:08;;;;;;;15.90;8.38;;;;;;;14.66;100.00;101522.66;10465200;28;20044;-78
2023/06/08 01:00:11;;;;;;;17.30;7.55;;;;;;;14.58;100.00;101526.72;10449338;28;20036;-78
2023/06/08 01:05:12;;;;;;;20.77;10.45;;;;;;;14.52;100.00;101519.47;10443690;28;20068;-78
2023/06/08 01:10:16;;;;;;;16.37;7.87;;;;;;;14.46;100.00;101526.19;10457401;28;20113;-78
2023/06/08 01:15:26;;;;;;;14.35;7.13;;;;;;;14.34;100.00;101531.84;10490083;28;20483;-78
2023/06/08 01:20:34;;;;;;;16.33;7.57;;;;;;;14.35;100.00;101528.38;10507036;28;20123;-76
2023/06/08 01:25:38;;;;;;;20.20;8.75;;;;;;;14.22;100.00;101521.69;10510265;28;20036;-78
2023/06/08 01:30:45;;;;;;;19.58;8.27;;;;;;;14.15;100.00;101523.16;10490598;28;20040;-78
2023/06/08 01:36:06;;;;;;;14.02;8.85;;;;;;;14.01;100.00;101527.81;10509051;28;20123;-78
2023/06/08 01:41:28;;;;;;;21.73;10.75;;;;;;;13.84;100.00;101526.16;10523346;28;20642;-77
2023/06/08 01:46:29;;;;;;;29.60;12.05;;;;;;;13.62;100.00;101523.47;10455693;28;20477;-77
2023/06/08 01:51:30;;;;;;;17.30;8.43;;;;;;;13.49;100.00;101518.47;10442317;28;20036;-77
2023/06/08 01:56:30;;;;;;;16.08;8.18;;;;;;;13.29;100.00;101514.88;10491100;28;20059;-77
2023/06/08 02:01:31;;;;;;;23.52;8.27;;;;;;;13.13;100.00;101518.53;10512046;28;20051;-78
2023/06/08 02:06:31;;;;;;;19.65;9.60;;;;;;;13.03;100.00;101520.72;10534166;28;20124;-77
2023/06/08 02:11:32;;;;;;;21.23;10.38;;;;;;;12.93;100.00;101518.47;10461473;28;20492;-76
2023/06/08 02:16:33;;;;;;;19.92;10.85;;;;;;;12.91;100.00;101518.38;10502924;28;20046;-77
2023/06/08 02:21:33;;;;;;;15.00;8.73;;;;;;;12.86;100.00;101516.38;10520113;28;20037;-77
2023/06/08 02:26:34;;;;;;;14.70;8.52;;;;;;;12.86;100.00;101519.88;10465131;28;20040;-78
2023/06/08 02:31:34;;;;;;;27.20;9.93;;;;;;;12.72;100.00;101519.22;10498660;28;20072;-77
2023/06/08 02:36:36;;;;;;;16.77;10.27;;;;;;;12.72;100.00;101527.09;10505511;28;20035;-77
2023/06/08 02:41:37;;;;;;;20.58;9.65;;;;;;;12.71;100.00;101527.94;10519928;28;20033;-77
2023/06/08 02:46:38;;;;;;;17.33;10.55;;;;;;;12.73;100.00;101530.59;10524071;28;20143;-77
2023/06/08 02:51:39;;;;;;;20.57;8.20;;;;;;;12.73;100.00;101530.59;10493448;28;20040;-77
2023/06/08 02:56:40;;;;;;;16.75;9.10;;;;;;;12.68;100.00;101535.66;10518662;28;20032;-77
2023/06/08 03:01:52;;;;;;;17.33;9.02;;;;;;;12.59;100.00;101530.81;10507872;28;20059;-77
2023/06/08 03:06:55;;;;;;;27.63;9.65;;;;;;;12.54;100.00;101523.56;10465208;28;20052;-77
2023/06/08 03:11:56;;;;;;;19.20;9.55;;;;;;;12.44;100.00;101519.56;10481166;28;20064;-77
2023/06/08 03:17:02;;;;;;;20.27;9.73;;;;;;;12.40;100.00;101525.47;10489045;28;20159;-77
2023/06/08 03:22:04;;;;;;;32.42;11.45;;;;;;;12.26;100.00;101509.91;10512345;28;20046;-79
2023/06/08 03:27:08;;;;;;;;;;;;;;;12.27;100.00;101519.59;10513640;28;20028;-77
2023/06/08 03:32:08;;;;;;;27.17;10.73;;;;;;;12.19;100.00;101524.47;10528340;28;19987;-77
2023/06/08 03:37:09;;;;;;;20.17;11.98;;;;;;;12.15;100.00;101524.22;10528373;28;20213;-77
2023/06/08 03:42:09;;;;;;;23.83;11.10;;;;;;;12.13;100.00;101520.63;10503839;28;20107;-78
2023/06/08 03:47:12;;;;;;;23.00;11.05;;;;;;;12.15;100.00;101522.50;10520944;28;20130;-79
2023/06/08 03:52:12;;;;;;;20.52;10.50;;;;;;;12.08;100.00;101522.09;10470932;28;20036;-79
2023/06/08 03:57:13;;;;;;;18.17;11.07;;;;;;;12.09;100.00;101524.81;10505331;28;20032;-80
2023/06/08 04:02:14;;;;;;;18.30;10.63;;;;;;;12.13;100.00;101518.00;10511004;28;20041;-79
2023/06/08 04:07:16;;;;;;;21.60;11.48;;;;;;;12.16;100.00;101521.69;10528877;28;20036;-79
2023/06/08 04:12:16;;;;;;;17.98;11.23;;;;;;;12.24;100.00;101522.06;10492560;28;20043;-79
2023/06/08 04:17:17;;;;;;;23.92;12.15;;;;;;;12.38;100.00;101517.53;10527279;28;20125;-79
2023/06/08 04:22:17;;;;;;;22.10;10.98;;;;;;;12.51;100.00;101511.16;10496827;28;20059;-80
2023/06/08 04:27:19;;;;;;;21.65;11.90;;;;;;;12.71;100.00;101506.00;10502317;28;20131;-80
2023/06/08 04:32:20;;;;;;;19.60;12.17;;;;;;;12.80;100.00;101493.31;10487940;28;20085;-80
2023/06/08 04:37:21;;;;;;;22.67;11.57;;;;;;;12.99;100.00;101492.50;10473187;28;20040;-79
2023/06/08 04:42:23;;;;;;;18.05;11.00;;;;;;;13.22;100.00;101482.16;10500137;28;20547;-80
2023/06/08 04:47:24;;;;;;;17.33;10.55;;;;;;;13.49;100.00;101485.19;10480172;28;20097;-80
2023/06/08 04:52:26;;;;;;;20.98;10.75;;;;;;;13.72;100.00;101495.84;10508680;28;20055;-80
2023/06/08 04:57:26;;;;;;;21.05;10.13;;;;;;;14.02;100.00;101486.63;10499598;28;20116;-82
2023/06/08 05:02:27;;;;;;;25.88;10.77;;;;;;;14.21;100.00;101490.94;10507584;28;20039;-83
2023/06/08 05:07:27;;;;;;;21.52;11.23;;;;;;;14.45;100.00;101487.53;10524711;28;20122;-82
2023/06/08 05:12:28;;;;;;;19.90;9.55;;;;;;;14.85;100.00;101489.19;10507168;28;20036;-83
2023/06/08 05:17:28;;;;;;;23.08;14.50;;;;;;;15.37;100.00;101477.16;10493203;28;20425;-80
2023/06/08 05:22:29;;;;;;;15.50;9.55;;;;;;;15.79;100.00;101481.31;10525678;28;20036;-80
2023/06/08 05:27:29;;;;;;;20.42;10.93;;;;;;;16.21;100.00;101474.88;10469301;28;20454;-81
2023/06/08 05:32:30;;;;;;;21.10;10.13;;;;;;;16.63;100.00;101470.97;10505420;28;20451;-80
2023/06/08 05:37:30;;;;;;;17.10;10.48;;;;;;;16.85;100.00;101464.63;10491667;28;20067;-81
2023/06/08 05:42:31;;;;;;;24.98;9.73;;;;;;;17.66;100.00;101460.81;10513287;28;20048;-80
2023/06/08 05:47:31;;;;;;;16.27;10.43;;;;;;;17.91;100.00;101451.81;10497217;28;20064;-80
2023/06/08 05:52:32;;;;;;;23.90;11.27;;;;;;;18.43;100.00;101457.56;10516790;28;20040;-81
2023/06/08 05:57:32;;;;;;;15.73;9.10;;;;;;;18.92;100.00;101464.91;10502940;28;20116;-80
2023/06/08 06:02:33;;;;;;;13.00;8.80;;;;;;;19.58;100.00;101457.47;10515329;28;20039;-81
2023/06/08 06:07:33;;;;;;;19.73;11.00;;;;;;;20.13;100.00;101462.06;10506039;28;20044;-80
2023/06/08 06:12:34;;;;;;;18.80;10.23;;;;;;;20.96;100.00;101457.22;10498959;28;20052;-80
2023/06/08 06:17:34;;;;;;;21.20;10.67;;;;;;;21.52;100.00;101462.34;10467900;28;20400;-81
2023/06/08 06:22:35;;;;;;;16.80;10.67;;;;;;;22.04;100.00;101454.06;10522921;28;20165;-81
2023/06/08 06:27:36;;;;;;;14.33;8.80;;;;;;;22.36;100.00;101453.44;10504733;28;20044;-80
2023/06/08 06:32:36;;;;;;;20.30;11.73;;;;;;;22.69;96.37;101451.94;10521534;28;20144;-80
2023/06/08 06:37:37;;;;;;;13.67;9.93;;;;;;;23.52;84.54;101449.69;10470182;28;20128;-80
2023/06/08 06:42:39;;;;;;;14.48;10.60;;;;;;;23.73;88.62;101456.88;10502833;28;20028;-81
2023/06/08 06:47:39;;;;;;;;;;;;;;;24.25;76.93;101464.09;10478597;28;20036;-81
2023/06/08 06:52:39;;;;;;;15.70;10.30;;;;;;;23.84;83.03;101472.91;10507677;28;19916;-82
2023/06/08 06:57:40;;;;;;;24.43;9.77;;;;;;;24.15;78.96;101464.97;10484282;28;20756;-82
2023/06/08 07:02:40;;;;;;;24.50;11.80;;;;;;;24.87;72.67;101461.38;10513923;28;20126;-81
2023/06/08 07:07:41;;;;;;;20.73;9.80;;;;;;;24.70;78.13;101465.84;10511302;28;20542;-81
2023/06/08 07:12:41;;;;;;;13.90;11.17;;;;;;;25.48;69.96;101462.06;10496872;28;20123;-81
2023/06/08 07:17:44;;;;;;;14.77;9.30;;;;;;;25.76;70.01;101447.66;10529837;28;20048;-81
2023/06/08 07:22:44;;;;;;;19.80;10.30;;;;;;;26.19;67.60;101452.72;10508269;28;20495;-81
2023/06/08 07:27:45;;;;;;;17.08;9.15;;;;;;;26.08;63.11;101452.75;10529277;28;20101;-82
2023/06/08 07:32:45;;;;;;;19.10;9.52;;;;;;;25.92;70.17;101452.00;10524718;28;20452;-82
2023/06/08 07:37:47;;;;;;;16.73;9.75;;;;;;;26.63;67.77;101450.53;10503404;28;20064;-81
2023/06/08 07:42:49;;;;;;;16.33;9.00;;;;;;;27.23;61.85;101448.97;10528979;28;20139;-78
2023/06/08 07:47:49;;;;;;;9.60;8.20;;;;;;;27.72;60.90;101440.31;10515119;28;20483;-78
2023/06/08 07:52:53;;;;;;;15.48;8.48;;;;;;;28.12;57.93;101435.16;10501375;28;20506;-75
2023/06/08 07:57:53;;;;;;;14.98;9.25;;;;;;;28.15;55.00;101434.28;10501671;28;20047;-78
2023/06/08 08:02:54;;;;;;;;;;;;;;;28.26;58.41;101431.38;10501746;28;20040;-77
2023/06/08 08:07:54;;;;;;;13.30;8.53;;;;;;;28.63;59.03;101435.22;10499337;28;20022;-79
2023/06/08 08:12:55;;;;;;;;;;;;;;;28.92;57.16;101429.28;10523887;28;20372;-78
2023/06/08 08:17:55;;;;;;;12.73;9.53;;;;;;;29.10;54.92;101432.50;10529941;28;19920;-78
2023/06/08 08:22:56;;;;;;;14.90;9.73;;;;;;;28.51;51.78;101430.94;10524328;28;20039;-78
2023/06/08 08:27:56;;;;;;;13.13;9.70;;;;;;;27.89;54.09;101440.03;10517681;28;20090;-78
2023/06/08 08:32:57;;;;;;;12.52;9.38;;;;;;;28.06;57.42;101429.88;10488944;28;20043;-75
2023/06/08 08:37:57;;;;;;;14.55;9.45;;;;;;;28.55;54.58;101430.88;10526465;28;20036;-76
2023/06/08 08:43:18;;;;;;;11.00;7.80;;;;;;;28.73;53.08;101421.53;10508511;28;20551;-78
2023/06/08 08:48:22;;;;;;;15.55;7.53;;;;;;;29.59;52.67;101417.97;10503716;28;20056;-77
2023/06/08 08:53:27;;;;;;;13.00;8.25;;;;;;;29.79;54.59;101416.59;10511384;28;20392;-76
2023/06/08 08:58:27;;;;;;;12.93;8.73;;;;;;;30.18;54.64;101408.47;10524568;28;20075;-77
2023/06/08 09:03:28;;;;;;;;;;;;;;;30.92;49.59;101415.50;10495415;28;20123;-76
2023/06/08 09:08:28;;;;;;;17.73;9.50;;;;;;;30.72;47.56;101416.94;10504356;28;20018;-77
2023/06/08 09:13:29;;;;;;;;;;;;;;;30.62;50.39;101418.13;10506418;28;20075;-78
2023/06/08 09:18:29;;;;;;;9.30;6.47;;;;;;;30.56;50.40;101419.19;10505246;28;20411;-78
2023/06/08 09:23:30;;;;;;;;;;;;;;;30.67;48.42;101413.50;10479748;28;20040;-78
2023/06/08 09:28:33;;;;;;;16.48;7.55;;;;;;;30.57;50.23;101409.25;10517643;28;20003;-78
2023/06/08 09:33:33;;;;;;;11.75;7.80;;;;;;;30.32;48.59;101415.31;10501693;28;20491;-79
2023/06/08 09:38:35;;;;;;;13.05;8.25;;;;;;;30.26;49.95;101404.69;10480567;28;20119;-77
2023/06/08 09:43:35;;;;;;;15.07;8.55;;;;;;;30.56;47.60;101407.47;10503182;28;20067;-80
2023/06/08 09:48:37;;;;;;;12.85;7.63;;;;;;;30.32;49.43;101407.22;10484535;28;20547;-81
2023/06/08 09:53:39;;;;;;;11.85;7.03;;;;;;;30.34;49.10;101399.97;10487172;28;20059;-80
2023/06/08 09:58:39;;;;;;;9.43;5.93;;;;;;;31.02;51.51;101399.91;10490307;28;20032;-80
2023/06/08 10:03:40;;;;;;;;;;;;;;;31.62;46.52;101405.31;10502946;28;20123;-79
2023/06/08 10:08:40;;;;;;;12.07;8.87;;;;;;;31.18;49.40;101392.25;10538216;28;19987;-79
2023/06/08 10:13:41;;;;;;;;;;;;;;;31.35;45.95;101397.13;10482745;28;20043;-81
2023/06/08 10:18:41;;;;;;;12.10;7.40;;;;;;;31.08;48.35;101393.41;10506632;28;19927;-81
2023/06/08 10:23:42;;;;;;;17.00;8.60;;;;;;;30.55;46.35;101389.50;10482405;28;20290;-80
2023/06/08 10:29:08;;;;;;;10.87;8.80;;;;;;;30.19;46.85;101379.69;10489514;28;20342;-80
2023/06/08 10:34:10;;;;;;;15.35;10.93;;;;;;;30.54;48.96;101375.13;10523219;28;20765;-81
2023/06/08 10:39:16;;;;;;;14.48;10.35;;;;;;;31.44;45.66;101368.91;10466349;28;20032;-80
2023/06/08 10:44:26;;;;;;;13.07;8.88;;;;;;;31.76;43.96;101362.47;10483417;28;20083;-81
2023/06/08 10:49:35;;;;;;;19.07;10.73;;;;;;;31.83;46.24;101355.03;10538412;28;20032;-80
2023/06/08 10:55:04;;;;;;;11.20;8.95;;;;;;;32.11;43.50;101350.50;10464335;28;20112;-82
2023/06/08 11:00:28;;;;;;;29.20;17.50;;;;;;;31.74;44.28;101341.81;10503541;28;20098;-80
2023/06/08 11:05:30;;;;;;;16.05;11.75;;;;;;;30.94;44.24;101346.06;10488392;28;20040;-80
2023/06/08 11:10:33;;;;;;;16.10;12.63;;;;;;;30.82;46.27;101344.66;10481107;28;20051;-80
2023/06/08 11:15:35;;;;;;;16.10;9.52;;;;;;;31.58;47.40;101333.31;10498466;28;20055;-82
2023/06/08 11:20:41;;;;;;;12.75;8.95;;;;;;;31.47;44.04;101325.53;10486362;28;20048;-80
2023/06/08 11:25:43;;;;;;;14.60;8.65;;;;;;;31.69;45.98;101325.72;10468236;28;20094;-82
2023/06/08 11:30:44;;;;;;;12.60;8.18;;;;;;;31.27;47.29;101327.06;10496454;28;20123;-81
2023/06/08 11:35:48;;;;;;;16.40;9.93;;;;;;;31.42;45.77;101306.78;10512187;28;20470;-81
2023/06/08 11:40:49;;;;;;;23.15;8.98;;;;;;;32.04;45.77;101303.78;10487677;28;20047;-81
2023/06/08 11:45:56;;;;;;;29.52;9.55;;;;;;;32.17;44.36;101302.41;10518868;28;20138;-80
2023/06/08 11:50:57;;;;;;;12.23;7.72;;;;;;;31.86;46.35;101299.94;10509992;28;20036;-82
2023/06/08 11:55:59;;;;;;;12.90;7.90;;;;;;;31.73;46.00;101297.63;10487426;28;20056;-83
2023/06/08 12:01:09;;;;;;;15.57;8.93;;;;;;;31.64;44.01;101287.13;10498239;28;20040;-80
2023/06/08 12:06:10;;;;;;;12.40;8.77;;;;;;;31.57;45.75;101282.84;10477353;28;20068;-81
2023/06/08 12:11:11;;;;;;;;;;;;;;;31.74;46.40;101283.19;10462550;28;20036;-80
2023/06/08 12:16:12;;;;;;;15.32;8.15;;;;;;;32.20;44.81;101280.63;10521986;28;19980;-82
2023/06/08 12:21:14;;;;;;;14.00;8.40;;;;;;;31.45;43.96;101281.44;10474750;28;20036;-82
2023/06/08 12:26:14;;;;;;;11.60;8.65;;;;;;;31.58;46.41;101271.97;10497695;28;20515;-81
2023/06/08 12:31:15;;;;;;;14.77;7.43;;;;;;;31.89;44.34;101262.81;10520992;28;20115;-83
2023/06/08 12:36:15;;;;;;;12.45;8.50;;;;;;;32.26;44.12;101260.59;10497872;28;20124;-81
2023/06/08 12:41:18;;;;;;;13.10;6.60;;;;;;;32.15;45.16;101257.41;10525801;28;20495;-82
2023/06/08 12:46:18;;;;;;;10.52;8.25;;;;;;;32.32;43.63;101248.66;10481696;28;20048;-83
2023/06/08 12:51:20;;;;;;;11.60;8.70;;;;;;;31.83;43.50;101245.94;10507510;28;20042;-84
2023/06/08 12:56:21;;;;;;;9.80;8.57;;;;;;;31.01;45.68;101252.22;10507321;28;20051;-83
2023/06/08 13:01:22;;;;;;;21.38;9.18;;;;;;;30.32;45.83;101245.25;10494009;28;20551;-84
2023/06/08 13:06:22;;;;;;;10.02;7.95;;;;;;;29.97;51.52;101244.41;10495559;28;20063;-86
2023/06/08 13:11:23;;;;;;;12.30;8.03;;;;;;;30.52;49.22;101224.88;10491796;28;20128;-80
2023/06/08 13:16:23;;;;;;;12.15;8.48;;;;;;;30.06;45.35;101229.81;10509106;28;20123;-82
2023/06/08 13:21:24;;;;;;;10.88;8.23;;;;;;;30.14;46.97;101217.88;10525767;28;20032;-82
2023/06/08 13:26:25;;;;;;;14.43;8.15;;;;;;;30.44;45.75;101212.50;10507042;28;20042;-82
2023/06/08 13:31:26;;;;;;;10.57;7.53;;;;;;;31.29;46.18;101198.13;10504341;28;20115;-81
2023/06/08 13:36:27;;;;;;;10.40;7.28;;;;;;;31.83;45.27;101191.81;10506535;28;20074;-83
2023/06/08 13:41:33;;;;;;;;;;;;;;;32.04;43.94;101180.19;10525340;28;20062;-83
2023/06/08 13:46:33;;;;;;;18.98;8.05;;;;;;;31.79;44.01;101169.38;10489924;28;20566;-81
2023/06/08 13:51:34;;;;;;;14.32;8.25;;;;;;;29.93;46.91;101175.28;10514513;28;20040;-84
2023/06/08 13:56:35;;;;;;;15.73;8.75;;;;;;;29.74;48.79;101181.19;10505862;28;20115;-86
2023/06/08 14:01:35;;;;;;;11.17;7.50;;;;;;;30.82;48.46;101176.25;10524564;28;20123;-83
2023/06/08 14:06:37;;;;;;;13.02;7.82;;;;;;;31.77;48.11;101166.75;10504054;28;20042;-83
2023/06/08 14:11:38;;;;;;;12.48;7.57;;;;;;;32.08;44.69;101164.69;10525551;28;20488;-83
2023/06/08 14:16:38;;;;;;;12.98;8.20;;;;;;;32.06;46.00;101158.47;10507638;28;20040;-83
2023/06/08 14:21:40;;;;;;;11.38;8.27;;;;;;;31.77;45.67;101144.22;10506296;28;20044;-86
2023/06/08 14:26:41;;;;;;;11.40;7.90;;;;;;;31.71;45.75;101156.13;10505832;28;20036;-84
2023/06/08 14:31:41;;;;;;;;;;;;;;;31.08;48.29;101136.69;10506787;28;20464;-84
2023/06/08 14:36:42;;;;;;;15.47;8.33;;;;;;;30.34;48.52;101140.81;10482028;28;20007;-82
2023/06/08 14:41:42;;;;;;;9.25;7.40;;;;;;;29.54;49.28;101144.00;10525179;28;20043;-81
2023/06/08 14:46:43;;;;;;;10.77;8.80;;;;;;;28.89;47.46;101141.13;10504940;28;20127;-86
2023/06/08 14:51:44;;;;;;;10.10;7.47;;;;;;;28.29;48.26;101135.31;10508871;28;20495;-80
2023/06/08 14:56:44;;;;;;;9.65;7.28;;;;;;;28.38;52.42;101137.81;10477405;28;20036;-81
2023/06/08 15:01:45;;;;;;;8.57;7.67;;;;;;;27.54;52.01;101147.56;10491122;28;20476;-81
2023/06/08 15:06:45;;;;;;;10.03;8.87;;;;;;;26.67;53.77;101138.22;10523145;28;20111;-82
2023/06/08 15:11:46;;;;;;;11.17;9.07;;;;;;;26.66;55.47;101136.44;10505682;28;20036;-81
2023/06/08 15:16:46;;;;;;;10.60;9.00;;;;;;;27.10;53.56;101133.09;10512206;28;20078;-81
2023/06/08 15:21:47;;;;;;;13.00;8.27;;;;;;;26.89;54.05;101121.78;10513281;28;20043;-82
2023/06/08 15:26:47;;;;;;;10.43;9.30;;;;;;;26.98;55.92;101115.41;10514090;28;20143;-81
2023/06/08 15:31:48;;;;;;;10.00;7.33;;;;;;;26.93;55.68;101104.72;10512877;28;20123;-80
2023/06/08 15:36:48;;;;;;;12.03;7.60;;;;;;;27.16;56.75;101097.19;10512628;28;20564;-80
2023/06/08 15:41:49;;;;;;;9.07;7.93;;;;;;;27.18;53.21;101096.22;10508233;28;20134;-82
2023/06/08 15:46:50;;;;;;;9.27;8.03;;;;;;;27.40;56.88;101082.41;10511762;28;20043;-82
2023/06/08 15:51:50;;;;;;;8.90;8.03;;;;;;;27.66;54.10;101083.72;10525428;28;20331;-82
2023/06/08 15:56:51;;;;;;;8.90;8.00;;;;;;;27.80;54.63;101065.50;10511847;28;20112;-81
2023/06/08 16:01:51;;;;;;;8.27;7.37;;;;;;;27.54;55.20;101066.91;10510259;28;20614;-80
2023/06/08 16:06:52;;;;;;;9.93;7.93;;;;;;;27.29;54.05;101057.53;10511866;28;20055;-81
2023/06/08 16:11:52;;;;;;;10.07;7.70;;;;;;;27.18;56.64;101057.75;10529132;28;20068;-81
2023/06/08 16:16:53;;;;;;;9.60;7.73;;;;;;;27.11;55.23;101062.34;10476235;28;20135;-81
2023/06/08 16:21:57;;;;;;;10.13;8.17;;;;;;;26.97;56.72;101060.78;10490064;28;20503;-80
2023/06/08 16:26:58;;;;;;;20.23;9.57;;;;;;;26.89;60.67;101051.97;10497684;28;20443;-82
2023/06/08 16:31:59;;;;;;;7.72;6.75;;;;;;;26.90;59.42;101051.06;10511866;28;20048;-82
2023/06/08 16:37:00;;;;;;;13.23;8.67;;;;;;;26.61;58.00;101049.72;10487521;28;20118;-82
2023/06/08 16:42:01;;;;;;;9.57;8.18;;;;;;;26.23;63.42;101045.84;10508552;28;20036;-81
2023/06/08 16:47:01;;;;;;;7.80;6.60;;;;;;;26.01;61.43;101048.81;10509037;28;20536;-81
2023/06/08 16:52:02;;;;;;;10.47;8.63;;;;;;;25.77;62.18;101042.00;10519405;28;20036;-80
2023/06/08 16:57:03;;;;;;;12.25;7.90;;;;;;;25.76;62.38;101048.25;10527184;28;20039;-80
2023/06/08 17:02:04;;;;;;;19.30;8.63;;;;;;;25.67;65.53;101056.41;10526773;28;20039;-79
2023/06/08 17:07:04;;;;;;;11.77;7.40;;;;;;;25.63;68.53;101048.41;10503106;28;20442;-82
2023/06/08 17:12:05;;;;;;;8.93;7.17;;;;;;;25.72;64.48;101049.22;10492302;28;20372;-82
2023/06/08 17:17:06;;;;;;;11.87;6.77;;;;;;;25.67;66.07;101049.25;10517139;28;20422;-82
2023/06/08 17:22:06;;;;;;;9.67;8.03;;;;;;;25.56;70.79;101064.56;10503244;28;20804;-81
2023/06/08 17:27:07;;;;;;;11.17;9.20;;;;;;;25.31;70.18;101051.41;10502202;28;20119;-81
2023/06/08 17:32:08;;;;;;;9.87;7.73;;;;;;;25.21;67.91;101051.50;10509633;28;20471;-81
2023/06/08 17:37:08;;;;;;;11.77;6.80;;;;;;;25.37;67.29;101054.03;10498062;28;20081;-81
2023/06/08 17:42:09;;;;;;;9.90;7.33;;;;;;;25.40;68.62;101045.97;10505885;28;20254;-83
2023/06/08 17:47:10;;;;;;;9.10;7.07;;;;;;;25.13;66.46;101055.19;10499064;28;20131;-82
2023/06/08 17:52:11;;;;;;;9.70;7.03;;;;;;;24.76;73.85;101053.72;10483346;28;20028;-82
2023/06/08 17:57:11;;;;;;;8.13;7.20;;;;;;;24.51;80.79;101061.91;10474937;28;20033;-82
2023/06/08 18:02:12;;;;;;;12.90;7.20;;;;;;;24.34;79.56;101062.91;10500647;28;20134;-81
2023/06/08 18:07:12;;;;;;;12.70;7.97;;;;;;;24.18;84.63;101061.22;10470623;28;20097;-89
2023/06/08 18:12:13;;;;;;;11.07;8.33;;;;;;;23.99;85.25;101055.09;10510072;28;20036;-89
2023/06/08 18:17:13;;;;;;;11.73;6.90;;;;;;;23.78;92.22;101056.97;10490892;28;20223;-90
2023/06/08 18:22:14;;;;;;;10.87;8.33;;;;;;;23.52;98.96;101065.94;10505838;28;20462;-91
2023/06/08 18:27:15;;;;;;;9.63;7.93;;;;;;;23.41;98.98;101071.31;10511012;28;20060;-89
2023/06/08 18:32:15;;;;;;;10.93;7.83;;;;;;;23.32;100.00;101074.00;10505658;28;20036;-90
2023/06/08 18:37:15;;;;;;;11.03;7.00;;;;;;;23.35;96.24;101074.00;10521132;28;20115;-86
2023/06/08 18:42:16;;;;;;;12.00;6.77;;;;;;;23.26;94.75;101071.34;10522615;28;20119;-87
2023/06/08 18:47:16;;;;;;;10.10;6.70;;;;;;;23.05;98.78;101075.78;10523569;28;20499;-86
2023/06/08 18:52:17;;;;;;;10.60;7.10;;;;;;;22.93;99.81;101082.03;10513556;28;20133;-83
2023/06/08 18:57:17;;;;;;;9.53;7.63;;;;;;;22.70;100.00;101090.00;10523646;28;20103;-88
2023/06/08 19:02:19;;;;;;;11.77;6.70;;;;;;;22.53;100.00;101087.34;10531212;28;20131;-88
2023/06/08 19:07:20;;;;;;;10.48;6.72;;;;;;;22.19;100.00;101092.56;10529070;28;20070;-87
2023/06/08 19:12:20;;;;;;;12.53;7.03;;;;;;;21.99;100.00;101090.72;10530038;28;20046;-88
2023/06/08 19:17:21;;;;;;;7.90;7.00;;;;;;;21.78;100.00;101104.81;10530240;28;20131;-87
2023/06/08 19:22:21;;;;;;;10.00;7.20;;;;;;;21.66;100.00;101101.22;10528921;28;20036;-88
2023/06/08 19:27:22;;;;;;;10.70;7.73;;;;;;;21.34;100.00;101104.53;10504021;28;20124;-87
2023/06/08 19:32:22;;;;;;;10.87;6.63;;;;;;;21.04;100.00;101108.75;10528834;28;20070;-86
2023/06/08 19:37:23;;;;;;;10.50;8.17;;;;;;;20.65;100.00;101110.13;10536666;28;20067;-87
2023/06/08 19:42:23;;;;;;;8.20;7.28;;;;;;;20.32;100.00;101117.78;10508191;28;20493;-86
2023/06/08 19:47:26;;;;;;;10.30;7.70;;;;;;;20.04;100.00;101122.75;10530981;28;20189;-87
2023/06/08 19:52:27;;;;;;;11.88;8.07;;;;;;;19.72;100.00;101120.53;10529377;28;20043;-87
2023/06/08 19:57:27;;;;;;;9.70;7.10;;;;;;;19.42;100.00;101120.97;10488428;28;20480;-87
2023/06/08 20:02:28;;;;;;;13.40;6.70;;;;;;;19.29;100.00;101131.41;10515199;28;20618;-88
2023/06/08 20:07:28;;;;;;;8.43;6.82;;;;;;;19.11;100.00;101133.75;10528547;28;20123;-87
2023/06/08 20:12:29;;;;;;;12.18;7.93;;;;;;;18.86;100.00;101134.19;10510250;28;20036;-87
2023/06/08 20:17:29;;;;;;;8.57;7.15;;;;;;;18.63;100.00;101142.63;10507676;28;20040;-84
2023/06/08 20:22:33;;;;;;;15.65;7.18;;;;;;;18.44;100.00;101143.13;10490476;28;20040;-83
2023/06/08 20:27:33;;;;;;;7.95;7.03;;;;;;;18.18;100.00;101159.41;10505808;28;20039;-83
2023/06/08 20:32:34;;;;;;;11.25;8.43;;;;;;;18.00;100.00;101160.78;10493729;28;20118;-82
2023/06/08 20:37:35;;;;;;;9.80;6.60;;;;;;;17.93;100.00;101163.22;10489404;28;20037;-82
2023/06/08 20:42:36;;;;;;;11.67;8.77;;;;;;;17.87;100.00;101174.59;10507159;28;20565;-83
2023/06/08 20:47:36;;;;;;;10.18;6.15;;;;;;;17.82;100.00;101177.13;10508737;28;20127;-82
2023/06/08 20:52:37;;;;;;;12.70;9.38;;;;;;;17.74;100.00;101181.34;10477719;28;20039;-82
2023/06/08 20:57:37;;;;;;;10.40;8.15;;;;;;;17.56;100.00;101185.34;10492033;28;20451;-83
2023/06/08 21:02:47;;;;;;;12.73;8.63;;;;;;;17.41;100.00;101183.22;10476594;28;20044;-83
2023/06/08 21:07:48;;;;;;;9.48;7.60;;;;;;;17.27;100.00;101184.66;10507853;28;20063;-83
2023/06/08 21:12:48;;;;;;;11.38;9.15;;;;;;;17.09;100.00;101180.69;10526870;28;20142;-83
2023/06/08 21:17:49;;;;;;;12.73;9.48;;;;;;;16.91;100.00;101182.81;10505087;28;20047;-81
2023/06/08 21:22:50;;;;;;;16.35;10.15;;;;;;;16.79;100.00;101191.28;10525957;28;20044;-81
2023/06/08 21:27:50;;;;;;;17.08;10.50;;;;;;;16.70;100.00;101195.47;10520950;28;20444;-80
2023/06/08 21:32:51;;;;;;;11.93;9.20;;;;;;;16.67;100.00;101203.31;10499128;28;20543;-80
2023/06/08 21:37:51;;;;;;;11.35;10.20;;;;;;;16.57;100.00;101210.09;10525084;28;20127;-80
2023/06/08 21:42:52;;;;;;;14.23;9.45;;;;;;;16.43;100.00;101219.38;10476694;28;20055;-80
2023/06/08 21:47:52;;;;;;;12.55;9.35;;;;;;;16.42;100.00;101228.13;10506035;28;20036;-80
2023/06/08 21:52:53;;;;;;;13.05;9.82;;;;;;;16.32;100.00;101236.66;10507948;28;20103;-79
2023/06/08 21:57:53;;;;;;;13.13;9.38;;;;;;;16.20;100.00;101258.28;10505843;28;20093;-80
2023/06/08 22:02:54;;;;;;;12.32;9.68;;;;;;;16.00;100.00;101256.81;10506650;28;20039;-80
2023/06/08 22:07:54;;;;;;;15.35;11.43;;;;;;;15.85;100.00;101257.19;10505383;28;20043;-80
2023/06/08 22:12:57;;;;;;;13.50;11.38;;;;;;;15.77;100.00;101257.78;10508155;28;20046;-80
2023/06/08 22:18:00;;;;;;;;;;;;;;;15.67;100.00;101251.31;10522204;28;20040;-80
2023/06/08 22:23:00;;;;;;;15.05;10.40;;;;;;;15.56;100.00;101249.22;10506477;28;20390;-80
2023/06/08 22:28:03;;;;;;;14.55;10.93;;;;;;;15.48;100.00;101263.00;10516508;28;20112;-80
2023/06/08 22:33:03;;;;;;;17.25;12.63;;;;;;;15.33;100.00;101259.00;10485592;28;20047;-80
2023/06/08 22:38:04;;;;;;;15.23;11.95;;;;;;;15.28;100.00;101273.75;10522538;28;20039;-80
2023/06/08 22:43:04;;;;;;;15.57;11.05;;;;;;;15.17;100.00;101276.00;10506087;28;20127;-80
2023/06/08 22:48:05;;;;;;;15.68;11.48;;;;;;;15.05;100.00;101281.75;10487489;28;20476;-80
2023/06/08 22:53:12;;;;;;;13.15;10.95;;;;;;;14.92;100.00;101285.66;10489809;28;20036;-80
2023/06/08 22:58:13;;;;;;;13.88;11.52;;;;;;;14.73;100.00;101270.94;10522556;28;20395;-80
2023/06/08 23:03:13;;;;;;;13.32;10.73;;;;;;;14.55;100.00;101276.38;10505642;28;20036;-80